createdAt,value
2023-04-18T00:01:38.823Z,8.36
2023-04-18T00:04:08.533Z,8.34
2023-04-18T00:06:37.814Z,8.41
2023-04-18T00:09:06.795Z,8.48
2023-04-18T00:11:35.984Z,8.36
2023-04-18T00:14:06.317Z,8.39
2023-04-18T00:16:36.251Z,8.44
2023-04-18T00:19:08.763Z,8.43
2023-04-18T00:21:38.191Z,8.40
2023-04-18T00:24:07.202Z,8.31
2023-04-18T00:26:36.371Z,8.29
2023-04-18T00:29:05.142Z,8.31
2023-04-18T00:31:34.242Z,8.34
2023-04-18T00:34:03.277Z,8.30
2023-04-18T00:36:33.816Z,8.45
2023-04-18T00:39:03.235Z,8.37
2023-04-18T00:41:32.277Z,8.37
2023-04-18T00:44:01.133Z,8.39
2023-04-18T00:46:30.229Z,8.30
2023-04-18T00:48:59.691Z,8.24
2023-04-18T00:51:29.081Z,8.32
2023-04-18T00:53:59.753Z,8.28
2023-04-18T00:56:28.926Z,8.25
2023-04-18T00:59:00.408Z,8.26
2023-04-18T01:01:29.557Z,8.30
2023-04-18T01:03:58.563Z,8.32
2023-04-18T01:06:28.331Z,8.25
2023-04-18T01:08:57.492Z,8.25
2023-04-18T01:11:28.683Z,8.19
2023-04-18T01:14:01.622Z,8.18
2023-04-18T01:16:32.691Z,8.15
2023-04-18T01:19:01.739Z,8.18
2023-04-18T01:21:31.496Z,8.18
2023-04-18T01:24:01.904Z,8.18
2023-04-18T01:26:32.395Z,8.16
2023-04-18T01:29:01.321Z,8.16
2023-04-18T01:31:34.845Z,8.24
2023-04-18T01:34:03.780Z,8.19
2023-04-18T01:36:33.097Z,8.22
2023-04-18T01:39:02.214Z,8.36
2023-04-18T01:41:33.409Z,8.42
2023-04-18T01:44:02.410Z,8.32
2023-04-18T01:46:31.923Z,8.34
2023-04-18T01:49:03.288Z,8.28
2023-04-18T01:51:32.476Z,8.39
2023-04-18T01:54:01.358Z,8.42
2023-04-18T01:56:31.981Z,8.32
2023-04-18T01:59:01.696Z,8.42
2023-04-18T02:01:30.903Z,8.35
2023-04-18T02:04:01.048Z,8.36
2023-04-18T02:06:30.909Z,8.32
2023-04-18T02:09:01.763Z,8.30
2023-04-18T02:11:32.473Z,8.38
2023-04-18T02:14:01.484Z,8.36
2023-04-18T02:16:30.844Z,8.38
2023-04-18T02:19:00.285Z,8.44
2023-04-18T02:21:30.305Z,8.40
2023-04-18T02:23:59.389Z,8.42
2023-04-18T02:26:28.509Z,8.32
2023-04-18T02:29:01.054Z,8.31
2023-04-18T02:31:32.165Z,8.33
2023-04-18T02:34:01.160Z,8.36
2023-04-18T02:36:31.141Z,8.39
2023-04-18T02:39:00.141Z,8.35
2023-04-18T02:41:29.218Z,8.35
2023-04-18T02:43:58.203Z,8.34
2023-04-18T02:46:28.945Z,8.32
2023-04-18T02:48:58.196Z,8.34
2023-04-18T02:51:28.122Z,8.32
2023-04-18T02:53:59.315Z,8.33
2023-04-18T02:56:39.898Z,8.33
2023-04-18T02:59:18.011Z,8.33
2023-04-18T03:02:11.600Z,8.35
2023-04-18T03:04:47.534Z,8.37
2023-04-18T03:07:17.168Z,8.42
2023-04-18T03:09:46.321Z,8.40
2023-04-18T03:12:26.328Z,8.41
2023-04-18T03:14:55.856Z,8.41
2023-04-18T03:17:26.553Z,8.46
2023-04-18T03:19:55.838Z,8.52
2023-04-18T03:22:25.920Z,8.46
2023-04-18T03:25:00.118Z,8.45
2023-04-18T03:27:43.782Z,8.40
2023-04-18T03:30:15.145Z,8.44
2023-04-18T03:32:49.086Z,8.55
2023-04-18T03:35:18.385Z,8.49
2023-04-18T03:37:47.437Z,8.52
2023-04-18T03:40:24.251Z,8.63
2023-04-18T03:42:56.598Z,8.61
2023-04-18T03:45:26.077Z,8.57
2023-04-18T03:47:56.833Z,8.53
2023-04-18T03:50:26.760Z,8.48
2023-04-18T03:52:58.216Z,8.44
2023-04-18T03:55:27.481Z,8.46
2023-04-18T03:57:58.451Z,8.43
2023-04-18T04:00:30.994Z,8.53
2023-04-18T04:03:08.082Z,8.59
2023-04-18T04:05:37.205Z,8.50
2023-04-18T04:08:07.597Z,8.46
2023-04-18T04:10:36.856Z,8.45
2023-04-18T04:13:06.089Z,8.46
2023-04-18T04:15:38.480Z,8.47
2023-04-18T04:18:10.961Z,8.44
2023-04-18T04:20:43.685Z,8.49
2023-04-18T04:23:17.700Z,8.56
2023-04-18T04:25:49.229Z,8.54
2023-04-18T04:28:33.737Z,8.52
2023-04-18T04:31:10.338Z,8.54
2023-04-18T04:33:42.719Z,8.53
2023-04-18T04:36:19.077Z,8.61
2023-04-18T04:38:52.338Z,8.59
2023-04-18T04:41:27.824Z,8.56
2023-04-18T04:43:57.165Z,8.72
2023-04-18T04:46:30.808Z,8.73
2023-04-18T04:49:03.340Z,8.71
2023-04-18T04:51:32.519Z,8.68
2023-04-18T04:54:02.132Z,8.69
2023-04-18T04:56:31.282Z,8.78
2023-04-18T04:59:01.056Z,8.71
2023-04-18T05:01:37.789Z,8.72
2023-04-18T05:04:08.521Z,8.74
2023-04-18T05:06:40.157Z,8.82
2023-04-18T05:09:10.094Z,8.93
2023-04-18T05:11:39.039Z,8.91
2023-04-18T05:14:08.431Z,8.98
2023-04-18T05:16:37.468Z,8.98
2023-04-18T05:19:08.035Z,8.98
2023-04-18T05:21:37.325Z,9.08
2023-04-18T05:24:07.667Z,9.13
2023-04-18T05:26:36.862Z,9.21
2023-04-18T05:29:05.942Z,9.22
2023-04-18T05:31:34.925Z,9.24
2023-04-18T05:34:04.259Z,9.29
2023-04-18T05:36:34.561Z,9.28
2023-04-18T05:39:04.220Z,9.42
2023-04-18T05:41:33.183Z,9.42
2023-04-18T05:44:05.704Z,9.50
2023-04-18T05:46:35.081Z,9.55
2023-04-18T05:49:04.617Z,9.69
2023-04-18T05:51:35.035Z,9.79
2023-04-18T05:54:04.503Z,9.82
2023-04-18T05:56:33.307Z,9.86
2023-04-18T05:59:02.516Z,9.87
2023-04-18T06:01:32.615Z,9.89
2023-04-18T06:04:02.094Z,9.93
2023-04-18T06:06:31.503Z,9.94
2023-04-18T06:09:02.042Z,10.02
2023-04-18T06:11:33.541Z,10.07
2023-04-18T06:14:02.934Z,9.97
2023-04-18T06:16:31.753Z,9.95
2023-04-18T06:19:02.463Z,9.95
2023-04-18T06:21:31.676Z,10.07
2023-04-18T06:24:02.478Z,10.09
2023-04-18T06:26:32.283Z,10.15
2023-04-18T06:29:01.574Z,10.12
2023-04-18T06:31:32.998Z,10.16
2023-04-18T06:34:11.825Z,10.23
2023-04-18T06:36:41.192Z,10.35
2023-04-18T06:39:11.740Z,10.39
2023-04-18T06:41:40.960Z,10.38
2023-04-18T06:44:10.007Z,10.51
2023-04-18T06:46:39.193Z,10.63
2023-04-18T06:49:08.528Z,10.72
2023-04-18T06:51:37.359Z,10.76
2023-04-18T06:54:06.512Z,10.91
2023-04-18T06:56:36.998Z,11.02
2023-04-18T06:59:06.064Z,11.14
2023-04-18T07:01:35.041Z,11.25
2023-04-18T07:04:04.331Z,11.40
2023-04-18T07:06:33.727Z,11.48
2023-04-18T07:09:02.860Z,11.59
2023-04-18T07:11:32.191Z,11.74
2023-04-18T07:14:02.595Z,11.86
2023-04-18T07:16:31.483Z,11.97
2023-04-18T07:19:00.970Z,12.09
2023-04-18T07:21:30.161Z,12.19
2023-04-18T07:23:59.239Z,12.22
2023-04-18T07:26:28.417Z,12.25
2023-04-18T07:28:57.630Z,12.25
2023-04-18T07:31:28.652Z,12.23
2023-04-18T07:33:58.392Z,12.24
2023-04-18T07:36:28.742Z,12.27
2023-04-18T07:38:58.946Z,12.31
2023-04-18T07:41:27.842Z,12.28
2023-04-18T07:43:57.131Z,12.28
2023-04-18T07:46:27.612Z,12.32
2023-04-18T07:48:56.809Z,12.28
2023-04-18T07:51:31.349Z,12.36
2023-04-18T07:54:00.773Z,12.43
2023-04-18T07:56:29.852Z,12.45
2023-04-18T07:59:04.939Z,12.46
2023-04-18T08:01:35.462Z,12.49
2023-04-18T08:04:04.885Z,12.49
2023-04-18T08:06:34.697Z,12.45
2023-04-18T08:09:05.804Z,12.41
2023-04-18T08:11:36.507Z,12.37
2023-04-18T08:14:05.708Z,12.44
2023-04-18T08:16:36.035Z,12.42
2023-04-18T08:19:05.465Z,12.35
2023-04-18T08:21:34.272Z,12.42
2023-04-18T08:24:03.481Z,12.46
2023-04-18T08:26:32.265Z,12.42
2023-04-18T08:29:01.488Z,12.46
2023-04-18T08:31:31.748Z,12.60
2023-04-18T08:34:04.502Z,12.59
2023-04-18T08:36:34.067Z,12.57
2023-04-18T08:39:03.652Z,12.61
2023-04-18T08:41:37.093Z,12.64
2023-04-18T08:44:07.527Z,12.74
2023-04-18T08:46:37.214Z,12.81
2023-04-18T08:49:08.521Z,12.81
2023-04-18T08:51:41.656Z,12.83
2023-04-18T08:54:12.400Z,12.82
2023-04-18T08:56:42.250Z,12.78
2023-04-18T08:59:11.802Z,12.82
2023-04-18T09:01:56.616Z,12.88
2023-04-18T09:04:37.462Z,12.96
2023-04-18T09:07:07.130Z,13.01
2023-04-18T09:09:46.693Z,13.05
2023-04-18T09:12:18.396Z,13.07
2023-04-18T09:14:50.320Z,13.10
2023-04-18T09:17:32.390Z,13.10
2023-04-18T09:20:05.237Z,13.18
2023-04-18T09:22:50.503Z,13.25
2023-04-18T09:25:27.436Z,13.35
2023-04-18T09:27:57.390Z,13.38
2023-04-18T09:30:34.311Z,13.37
2023-04-18T09:33:04.368Z,13.44
2023-04-18T09:35:36.017Z,13.48
2023-04-18T09:38:04.962Z,13.52
2023-04-18T09:40:34.285Z,13.61
2023-04-18T09:43:17.945Z,13.65
2023-04-18T09:45:48.170Z,13.63
2023-04-18T09:48:17.242Z,13.62
2023-04-18T09:50:48.772Z,13.67
2023-04-18T09:53:20.923Z,13.64
2023-04-18T09:55:51.235Z,13.66
2023-04-18T09:58:22.354Z,13.65
2023-04-18T10:00:52.551Z,13.64
2023-04-18T10:03:24.930Z,13.69
2023-04-18T10:05:57.747Z,13.72
2023-04-18T10:08:27.568Z,13.69
2023-04-18T10:10:58.712Z,13.74
2023-04-18T10:13:27.828Z,13.71
2023-04-18T10:15:57.646Z,13.80
2023-04-18T10:18:26.609Z,13.86
2023-04-18T10:21:04.399Z,13.85
2023-04-18T10:23:37.111Z,13.80
2023-04-18T10:26:06.770Z,13.87
2023-04-18T10:28:53.298Z,13.90
2023-04-18T10:31:23.815Z,13.99
2023-04-18T10:34:03.752Z,14.02
2023-04-18T10:36:36.178Z,14.05
2023-04-18T10:39:21.577Z,14.03
2023-04-18T10:41:51.516Z,14.02
2023-04-18T10:44:22.634Z,14.01
2023-04-18T10:47:11.564Z,13.99
2023-04-18T10:49:40.578Z,14.03
2023-04-18T10:54:43.019Z,13.99
2023-04-18T10:57:13.216Z,13.98
2023-04-18T10:59:43.031Z,14.01
2023-04-18T11:02:20.272Z,14.03
2023-04-18T11:04:51.019Z,14.05
2023-04-18T11:07:21.879Z,14.13
2023-04-18T11:09:54.490Z,14.12
2023-04-18T11:12:23.923Z,14.13
2023-04-18T11:14:54.409Z,14.02
2023-04-18T11:17:24.214Z,13.98
2023-04-18T11:20:00.529Z,14.01
2023-04-18T11:22:31.230Z,14.02
2023-04-18T11:25:00.611Z,14.06
2023-04-18T11:27:30.716Z,14.05
2023-04-18T11:29:59.640Z,13.94
2023-04-18T11:32:28.845Z,13.88
2023-04-18T11:34:59.028Z,13.90
2023-04-18T11:37:34.973Z,13.93
2023-04-18T11:40:05.894Z,13.85
2023-04-18T11:42:35.705Z,13.74
2023-04-18T11:45:04.881Z,13.77
2023-04-18T11:47:36.305Z,13.81
2023-04-18T11:50:06.743Z,13.86
2023-04-18T11:52:38.916Z,13.89
2023-04-18T11:55:14.976Z,13.97
2023-04-18T11:57:50.785Z,14.04
2023-04-18T12:00:21.671Z,14.03
2023-04-18T12:02:51.971Z,14.08
2023-04-18T12:05:30.804Z,14.14
2023-04-18T12:08:08.221Z,14.14
2023-04-18T12:10:37.182Z,14.26
2023-04-18T12:13:08.324Z,14.31
2023-04-18T12:15:39.526Z,14.35
2023-04-18T12:18:09.563Z,14.42
2023-04-18T12:20:39.296Z,14.50
2023-04-18T12:23:09.976Z,14.56
2023-04-18T12:25:39.131Z,14.57
2023-04-18T12:28:15.540Z,14.66
2023-04-18T12:30:44.724Z,14.70
2023-04-18T12:33:13.906Z,14.75
2023-04-18T12:35:42.666Z,14.81
2023-04-18T12:38:13.139Z,14.78
2023-04-18T12:40:42.112Z,14.80
2023-04-18T12:43:11.314Z,14.83
2023-04-18T12:45:40.175Z,14.90
2023-04-18T12:48:09.525Z,14.88
2023-04-18T12:50:38.513Z,14.92
2023-04-18T12:53:07.558Z,14.93
2023-04-18T12:55:38.039Z,14.93
2023-04-18T12:58:07.263Z,14.94
2023-04-18T13:00:36.220Z,15.01
2023-04-18T13:03:06.342Z,15.06
2023-04-18T13:05:35.528Z,15.06
2023-04-18T13:08:16.151Z,15.11
2023-04-18T13:10:48.477Z,15.11
2023-04-18T13:13:18.087Z,15.21
2023-04-18T13:15:47.011Z,15.28
2023-04-18T13:18:16.221Z,15.29
2023-04-18T13:20:45.003Z,15.28
2023-04-18T13:23:15.020Z,15.29
2023-04-18T13:25:44.066Z,15.26
2023-04-18T13:28:14.524Z,15.39
2023-04-18T13:30:43.552Z,15.37
2023-04-18T13:33:13.225Z,15.35
2023-04-18T13:35:42.252Z,15.39
2023-04-18T13:38:12.243Z,15.47
2023-04-18T13:40:41.205Z,15.50
2023-04-18T13:43:11.108Z,15.43
2023-04-18T13:45:42.077Z,15.38
2023-04-18T13:48:12.205Z,15.41
2023-04-18T13:50:42.814Z,15.32
2023-04-18T13:53:11.891Z,15.31
2023-04-18T13:55:40.738Z,15.29
2023-04-18T13:58:10.040Z,15.25
2023-04-18T14:00:39.181Z,15.31
2023-04-18T14:03:09.768Z,15.36
2023-04-18T14:05:38.877Z,15.42
2023-04-18T14:08:08.781Z,15.47
2023-04-18T14:10:38.078Z,15.42
2023-04-18T14:13:07.310Z,15.34
2023-04-18T14:15:37.550Z,15.21
2023-04-18T14:18:06.926Z,15.23
2023-04-18T14:20:37.306Z,15.30
2023-04-18T14:23:06.462Z,15.28
2023-04-18T14:25:35.303Z,15.23
2023-04-18T14:28:05.338Z,15.29
2023-04-18T14:30:34.246Z,15.19
2023-04-18T14:33:03.856Z,15.10
2023-04-18T14:35:32.711Z,15.03
2023-04-18T14:38:03.317Z,15.00
2023-04-18T14:40:32.837Z,14.84
2023-04-18T14:43:02.224Z,14.74
2023-04-18T14:45:33.583Z,14.68
2023-04-18T14:48:02.893Z,14.51
2023-04-18T14:50:32.012Z,14.43
2023-04-18T14:53:01.376Z,14.30
2023-04-18T14:55:31.642Z,14.17
2023-04-18T14:58:00.912Z,14.02
2023-04-18T15:00:31.795Z,13.95
2023-04-18T15:03:01.453Z,13.97
2023-04-18T15:05:30.449Z,13.97
2023-04-18T15:07:59.757Z,13.95
2023-04-18T15:10:28.856Z,13.90
2023-04-18T15:12:59.460Z,13.93
2023-04-18T15:15:28.433Z,13.89
2023-04-18T15:17:58.308Z,13.90
2023-04-18T15:20:29.025Z,13.89
2023-04-18T15:22:58.410Z,14.03
2023-04-18T15:25:28.297Z,14.04
2023-04-18T15:27:58.245Z,14.16
2023-04-18T15:30:28.640Z,14.23
2023-04-18T15:32:58.682Z,14.30
2023-04-18T15:35:27.731Z,14.30
2023-04-18T15:37:57.718Z,14.39
2023-04-18T15:40:27.854Z,14.35
2023-04-18T15:42:58.055Z,14.28
2023-04-18T15:45:28.509Z,14.35
2023-04-18T15:47:57.884Z,14.33
2023-04-18T15:50:26.848Z,14.36
2023-04-18T15:52:57.557Z,14.23
2023-04-18T15:55:26.420Z,14.13
2023-04-18T15:57:56.319Z,14.06
2023-04-18T16:00:27.682Z,14.00
2023-04-18T16:02:58.516Z,13.97
2023-04-18T16:05:27.621Z,13.99
2023-04-18T16:07:58.155Z,13.91
2023-04-18T16:10:27.211Z,13.76
2023-04-18T16:12:56.290Z,13.56
2023-04-18T16:15:26.984Z,13.31
2023-04-18T16:17:56.343Z,13.17
2023-04-18T16:20:27.375Z,13.06
2023-04-18T16:22:56.574Z,12.83
2023-04-18T16:25:25.498Z,12.73
2023-04-18T16:27:57.075Z,12.55
2023-04-18T16:30:25.950Z,12.48
2023-04-18T16:32:55.492Z,12.36
2023-04-18T16:35:24.605Z,12.09
2023-04-18T16:37:56.496Z,12.06
2023-04-18T16:40:30.406Z,11.92
2023-04-18T16:43:00.274Z,11.81
2023-04-18T16:45:29.299Z,11.78
2023-04-18T16:47:59.214Z,11.71
2023-04-18T16:50:28.056Z,11.66
2023-04-18T16:52:58.893Z,11.62
2023-04-18T16:55:27.807Z,11.53
2023-04-18T16:57:56.917Z,11.53
2023-04-18T17:00:25.784Z,11.45
2023-04-18T17:02:55.906Z,11.35
2023-04-18T17:05:25.953Z,11.27
2023-04-18T17:07:56.100Z,11.20
2023-04-18T17:10:26.535Z,11.14
2023-04-18T17:12:55.850Z,11.00
2023-04-18T17:15:24.636Z,10.96
2023-04-18T17:17:56.514Z,10.84
2023-04-18T17:20:25.586Z,10.88
2023-04-18T17:22:54.708Z,10.82
2023-04-18T17:25:23.473Z,10.72
2023-04-18T17:27:53.949Z,10.69
2023-04-18T17:30:23.396Z,10.61
2023-04-18T17:32:52.797Z,10.59
2023-04-18T17:35:23.342Z,10.56
2023-04-18T17:37:52.937Z,10.30
2023-04-18T17:40:21.870Z,10.25
2023-04-18T17:42:50.970Z,10.24
2023-04-18T17:45:21.362Z,10.17
2023-04-18T17:47:51.080Z,9.92
2023-04-18T17:50:21.218Z,9.87
2023-04-18T17:52:50.562Z,9.84
2023-04-18T17:55:19.885Z,9.73
2023-04-18T17:57:48.981Z,9.63
2023-04-18T18:00:18.066Z,9.48
2023-04-18T18:02:48.613Z,9.44
2023-04-18T18:05:17.637Z,9.38
2023-04-18T18:07:48.464Z,9.34
2023-04-18T18:10:20.163Z,9.24
2023-04-18T18:12:49.811Z,9.23
2023-04-18T18:15:18.994Z,9.17
2023-04-18T18:17:50.735Z,9.13
2023-04-18T18:20:19.892Z,8.94
2023-04-18T18:22:49.365Z,8.78
2023-04-18T18:25:20.761Z,8.83
2023-04-18T18:27:51.609Z,8.79
2023-04-18T18:30:20.627Z,8.70
2023-04-18T18:32:54.656Z,8.73
2023-04-18T18:35:23.681Z,8.63
2023-04-18T18:37:52.730Z,8.53
2023-04-18T18:40:21.960Z,8.59
2023-04-18T18:42:53.831Z,8.48
2023-04-18T18:45:23.084Z,8.43
2023-04-18T18:47:53.725Z,8.41
2023-04-18T18:50:23.371Z,8.40
2023-04-18T18:52:52.829Z,8.32
2023-04-18T18:55:22.912Z,8.23
2023-04-18T18:57:52.561Z,8.21
2023-04-18T19:00:21.482Z,8.15
2023-04-18T19:02:54.543Z,8.04
2023-04-18T19:05:23.705Z,8.02
2023-04-18T19:07:52.787Z,8.00
2023-04-18T19:10:21.966Z,7.95
2023-04-18T19:12:51.598Z,7.86
2023-04-18T19:15:20.378Z,7.81
2023-04-18T19:17:49.594Z,7.74
2023-04-18T19:20:20.386Z,7.62
2023-04-18T19:22:49.694Z,7.56
2023-04-18T19:25:18.450Z,7.53
2023-04-18T19:27:49.472Z,7.52
2023-04-18T19:30:20.883Z,7.43
2023-04-18T19:32:50.218Z,7.42
2023-04-18T19:35:20.441Z,7.37
2023-04-18T19:37:49.717Z,7.34
2023-04-18T19:40:18.588Z,7.25
2023-04-18T19:42:47.795Z,7.33
2023-04-18T19:45:16.747Z,7.26
2023-04-18T19:47:47.871Z,7.16
2023-04-18T19:50:16.781Z,7.09
2023-04-18T19:52:47.373Z,7.03
2023-04-18T19:55:17.554Z,7.05
2023-04-18T19:57:46.811Z,6.96
2023-04-18T20:00:16.456Z,6.95
2023-04-18T20:02:45.617Z,6.91
2023-04-18T20:05:14.981Z,6.84
2023-04-18T20:07:44.466Z,6.85
2023-04-18T20:10:14.807Z,6.78
2023-04-18T20:12:44.087Z,6.76
2023-04-18T20:15:13.157Z,6.76
2023-04-18T20:17:42.376Z,6.76
2023-04-18T20:20:11.979Z,6.66
2023-04-18T20:22:43.063Z,6.58
2023-04-18T20:25:13.079Z,6.71
2023-04-18T20:27:45.646Z,6.64
2023-04-18T20:30:14.944Z,6.64
2023-04-18T20:32:44.051Z,6.52
2023-04-18T20:35:13.509Z,6.51
2023-04-18T20:37:42.623Z,6.50
2023-04-18T20:40:11.606Z,6.45
2023-04-18T20:42:41.149Z,6.33
2023-04-18T20:45:11.983Z,6.37
2023-04-18T20:47:42.342Z,6.29
2023-04-18T20:50:14.020Z,6.26
2023-04-18T20:52:43.951Z,6.23
2023-04-18T20:55:13.115Z,6.24
2023-04-18T20:57:42.185Z,6.16
2023-04-18T21:00:14.737Z,6.15
2023-04-18T21:02:44.927Z,6.14
2023-04-18T21:05:14.027Z,6.14
2023-04-18T21:07:44.102Z,6.09
2023-04-18T21:10:14.526Z,6.10
2023-04-18T21:12:43.626Z,6.06
2023-04-18T21:15:14.217Z,6.07
2023-04-18T21:17:43.419Z,6.06
2023-04-18T21:20:12.386Z,6.04
2023-04-18T21:22:42.332Z,6.02
2023-04-18T21:25:11.906Z,5.98
2023-04-18T21:27:40.975Z,5.87
2023-04-18T21:30:09.932Z,5.88
2023-04-18T21:32:40.532Z,5.87
2023-04-18T21:35:10.107Z,5.87
2023-04-18T21:37:39.411Z,5.79
2023-04-18T21:40:08.853Z,5.68
2023-04-18T21:42:38.291Z,5.67
2023-04-18T21:45:07.912Z,5.68
2023-04-18T21:47:37.133Z,5.61
2023-04-18T21:50:08.126Z,5.54
2023-04-18T21:52:37.408Z,5.53
2023-04-18T21:55:06.671Z,5.58
2023-04-18T21:57:36.307Z,5.50
2023-04-18T22:00:07.310Z,5.49
2023-04-18T22:02:38.803Z,5.56
2023-04-18T22:05:09.273Z,5.48
2023-04-18T22:07:50.089Z,5.53
2023-04-18T22:10:26.151Z,5.48
2023-04-18T22:12:56.043Z,5.47
2023-04-18T22:15:27.053Z,5.42
2023-04-18T22:17:56.520Z,5.38
2023-04-18T22:20:27.040Z,5.33
2023-04-18T22:22:56.642Z,5.36
2023-04-18T22:25:25.480Z,5.32
2023-04-18T22:27:54.701Z,5.39
2023-04-18T22:30:23.478Z,5.34
2023-04-18T22:32:52.737Z,5.31
2023-04-18T22:35:21.549Z,5.33
2023-04-18T22:37:52.030Z,5.30
2023-04-18T22:40:21.053Z,5.32
2023-04-18T22:42:51.879Z,5.34
2023-04-18T22:45:20.877Z,5.36
2023-04-18T22:47:50.251Z,5.35
2023-04-18T22:50:19.077Z,5.37
2023-04-18T22:52:48.342Z,5.32
2023-04-18T22:55:19.953Z,5.30
2023-04-18T22:57:49.146Z,5.39
2023-04-18T23:00:17.994Z,5.41
2023-04-18T23:02:47.713Z,5.42
2023-04-18T23:05:16.849Z,5.34
2023-04-18T23:07:46.125Z,5.29
2023-04-18T23:10:14.888Z,5.30
2023-04-18T23:12:45.553Z,5.42
2023-04-18T23:15:14.405Z,5.40
2023-04-18T23:17:43.607Z,5.40
2023-04-18T23:20:13.826Z,5.41
2023-04-18T23:22:43.010Z,5.49
2023-04-18T23:25:11.847Z,5.45
2023-04-18T23:27:41.191Z,5.51
2023-04-18T23:30:11.987Z,5.47
2023-04-18T23:32:41.166Z,5.45
2023-04-18T23:35:10.579Z,5.43
2023-04-18T23:37:39.880Z,5.50
2023-04-18T23:40:09.428Z,5.48
2023-04-18T23:42:38.621Z,5.60
2023-04-18T23:45:07.734Z,5.59
2023-04-18T23:47:38.375Z,5.59
2023-04-18T23:50:07.980Z,5.67
2023-04-18T23:52:38.195Z,5.71
2023-04-18T23:55:07.574Z,5.77
2023-04-18T23:57:36.658Z,5.85
